sensor_id;sensor_type;location;lat;lon;timestamp;pressure;altitude;pressure_sealevel;temperature;humidity
62124;BME280;48110;47.532;19.078;2023-08-24T00:00:48;100450.56;;;23.18;100.00
62124;BME280;48110;47.532;19.078;2023-08-24T00:03:52;100448.94;;;23.01;100.00
62124;BME280;48110;47.532;19.078;2023-08-24T00:06:55;100435.50;;;22.89;100.00
62124;BME280;48110;47.532;19.078;2023-08-24T00:09:58;100426.25;;;22.85;100.00
62124;BME280;48110;47.532;19.078;2023-08-24T00:13:01;100432.47;;;22.85;100.00
62124;BME280;48110;47.532;19.078;2023-08-24T00:16:05;100440.50;;;22.80;100.00
62124;BME280;48110;47.532;19.078;2023-08-24T00:19:07;100433.63;;;22.73;100.00
62124;BME280;48110;47.532;19.078;2023-08-24T00:22:11;100428.84;;;22.63;100.00
62124;BME280;48110;47.532;19.078;2023-08-24T00:25:13;100431.47;;;22.58;100.00
62124;BME280;48110;47.532;19.078;2023-08-24T00:28:16;100419.50;;;22.54;100.00
62124;BME280;48110;47.532;19.078;2023-08-24T00:31:19;100427.59;;;22.54;100.00
62124;BME280;48110;47.532;19.078;2023-08-24T00:34:23;100428.25;;;22.44;100.00
62124;BME280;48110;47.532;19.078;2023-08-24T00:37:25;100433.16;;;22.47;100.00
62124;BME280;48110;47.532;19.078;2023-08-24T00:40:31;100434.31;;;22.35;100.00
62124;BME280;48110;47.532;19.078;2023-08-24T00:43:35;100440.91;;;22.27;100.00
62124;BME280;48110;47.532;19.078;2023-08-24T00:46:39;100436.84;;;22.41;100.00
62124;BME280;48110;47.532;19.078;2023-08-24T00:49:42;100438.84;;;22.46;100.00
62124;BME280;48110;47.532;19.078;2023-08-24T00:52:47;100438.38;;;22.37;100.00
62124;BME280;48110;47.532;19.078;2023-08-24T00:55:49;100432.97;;;22.37;100.00
62124;BME280;48110;47.532;19.078;2023-08-24T00:58:53;100440.13;;;22.43;100.00
62124;BME280;48110;47.532;19.078;2023-08-24T01:01:58;100447.50;;;22.48;100.00
62124;BME280;48110;47.532;19.078;2023-08-24T01:05:02;100446.69;;;22.47;100.00
62124;BME280;48110;47.532;19.078;2023-08-24T01:08:06;100447.66;;;22.41;100.00
62124;BME280;48110;47.532;19.078;2023-08-24T01:11:31;100450.28;;;22.36;100.00
62124;BME280;48110;47.532;19.078;2023-08-24T01:14:44;100447.66;;;22.41;100.00
62124;BME280;48110;47.532;19.078;2023-08-24T01:17:55;100441.19;;;22.42;100.00
62124;BME280;48110;47.532;19.078;2023-08-24T01:21:03;100437.66;;;22.42;100.00
62124;BME280;48110;47.532;19.078;2023-08-24T01:24:12;100444.16;;;22.41;100.00
62124;BME280;48110;47.532;19.078;2023-08-24T01:27:17;100436.13;;;22.46;100.00
62124;BME280;48110;47.532;19.078;2023-08-24T01:30:21;100434.13;;;22.41;100.00
62124;BME280;48110;47.532;19.078;2023-08-24T01:33:24;100433.16;;;22.31;100.00
62124;BME280;48110;47.532;19.078;2023-08-24T01:36:29;100431.00;;;22.33;100.00
62124;BME280;48110;47.532;19.078;2023-08-24T01:40:12;100440.69;;;22.29;100.00
62124;BME280;48110;47.532;19.078;2023-08-24T01:43:18;100437.16;;;22.28;100.00
62124;BME280;48110;47.532;19.078;2023-08-24T01:46:43;100443.25;;;22.35;100.00
62124;BME280;48110;47.532;19.078;2023-08-24T01:49:48;100441.72;;;22.28;100.00
62124;BME280;48110;47.532;19.078;2023-08-24T01:52:51;100440.03;;;22.22;100.00
62124;BME280;48110;47.532;19.078;2023-08-24T01:55:54;100444.28;;;22.34;100.00
62124;BME280;48110;47.532;19.078;2023-08-24T01:58:57;100434.78;;;22.32;100.00
62124;BME280;48110;47.532;19.078;2023-08-24T02:02:00;100438.31;;;22.32;100.00
62124;BME280;48110;47.532;19.078;2023-08-24T02:05:03;100443.97;;;22.31;100.00
62124;BME280;48110;47.532;19.078;2023-08-24T02:08:06;100429.38;;;22.32;100.00
62124;BME280;48110;47.532;19.078;2023-08-24T02:11:09;100429.03;;;22.28;100.00
62124;BME280;48110;47.532;19.078;2023-08-24T02:14:12;100432.97;;;22.21;100.00
62124;BME280;48110;47.532;19.078;2023-08-24T02:17:15;100425.59;;;22.33;100.00
62124;BME280;48110;47.532;19.078;2023-08-24T02:20:17;100431.41;;;22.25;100.00
62124;BME280;48110;47.532;19.078;2023-08-24T02:23:20;100434.88;;;22.37;100.00
62124;BME280;48110;47.532;19.078;2023-08-24T02:26:23;100429.53;;;22.42;100.00
62124;BME280;48110;47.532;19.078;2023-08-24T02:29:26;100433.66;;;22.44;100.00
62124;BME280;48110;47.532;19.078;2023-08-24T02:32:30;100427.16;;;22.29;100.00
62124;BME280;48110;47.532;19.078;2023-08-24T02:35:33;100417.41;;;22.28;100.00
62124;BME280;48110;47.532;19.078;2023-08-24T02:38:35;100425.09;;;22.19;100.00
62124;BME280;48110;47.532;19.078;2023-08-24T02:41:39;100421.00;;;22.17;100.00
62124;BME280;48110;47.532;19.078;2023-08-24T02:44:42;100422.63;;;22.18;100.00
62124;BME280;48110;47.532;19.078;2023-08-24T02:47:46;100423.63;;;22.12;100.00
62124;BME280;48110;47.532;19.078;2023-08-24T02:50:49;100426.13;;;22.01;100.00
62124;BME280;48110;47.532;19.078;2023-08-24T02:53:52;100430.25;;;21.92;100.00
62124;BME280;48110;47.532;19.078;2023-08-24T02:56:55;100421.69;;;21.95;100.00
62124;BME280;48110;47.532;19.078;2023-08-24T02:59:58;100422.38;;;21.91;100.00
62124;BME280;48110;47.532;19.078;2023-08-24T03:03:01;100419.91;;;21.89;100.00
62124;BME280;48110;47.532;19.078;2023-08-24T03:06:05;100423.00;;;21.81;100.00
62124;BME280;48110;47.532;19.078;2023-08-24T03:09:08;100423.81;;;21.82;100.00
62124;BME280;48110;47.532;19.078;2023-08-24T03:12:11;100419.97;;;21.78;100.00
62124;BME280;48110;47.532;19.078;2023-08-24T03:15:14;100421.59;;;21.79;100.00
62124;BME280;48110;47.532;19.078;2023-08-24T03:18:18;100419.87;;;21.73;100.00
62124;BME280;48110;47.532;19.078;2023-08-24T03:21:21;100423.03;;;21.69;100.00
62124;BME280;48110;47.532;19.078;2023-08-24T03:24:24;100427.25;;;21.65;100.00
62124;BME280;48110;47.532;19.078;2023-08-24T03:27:28;100415.66;;;21.65;100.00
62124;BME280;48110;47.532;19.078;2023-08-24T03:30:31;100421.75;;;21.60;100.00
62124;BME280;48110;47.532;19.078;2023-08-24T03:33:34;100430.31;;;21.69;100.00
62124;BME280;48110;47.532;19.078;2023-08-24T03:36:38;100429.28;;;21.58;100.00
62124;BME280;48110;47.532;19.078;2023-08-24T03:39:40;100437.53;;;21.52;100.00
62124;BME280;48110;47.532;19.078;2023-08-24T03:42:43;100424.63;;;21.54;100.00
62124;BME280;48110;47.532;19.078;2023-08-24T03:45:46;100426.38;;;21.48;100.00
62124;BME280;48110;47.532;19.078;2023-08-24T03:48:49;100426.16;;;21.38;100.00
62124;BME280;48110;47.532;19.078;2023-08-24T03:51:52;100434.97;;;21.34;100.00
62124;BME280;48110;47.532;19.078;2023-08-24T03:54:55;100424.41;;;21.32;100.00
62124;BME280;48110;47.532;19.078;2023-08-24T03:57:58;100434.16;;;21.33;100.00
62124;BME280;48110;47.532;19.078;2023-08-24T04:01:01;100434.47;;;21.48;100.00
62124;BME280;48110;47.532;19.078;2023-08-24T04:04:06;100436.03;;;21.33;100.00
62124;BME280;48110;47.532;19.078;2023-08-24T04:07:09;100438.00;;;21.25;100.00
62124;BME280;48110;47.532;19.078;2023-08-24T04:10:12;100433.91;;;21.23;100.00
62124;BME280;48110;47.532;19.078;2023-08-24T04:13:14;100443.28;;;21.20;100.00
62124;BME280;48110;47.532;19.078;2023-08-24T04:16:18;100436.41;;;21.24;100.00
62124;BME280;48110;47.532;19.078;2023-08-24T04:19:22;100434.97;;;21.22;100.00
62124;BME280;48110;47.532;19.078;2023-08-24T04:22:25;100448.00;;;21.25;100.00
62124;BME280;48110;47.532;19.078;2023-08-24T04:25:27;100441.78;;;21.24;100.00
62124;BME280;48110;47.532;19.078;2023-08-24T04:28:32;100447.53;;;21.28;100.00
62124;BME280;48110;47.532;19.078;2023-08-24T04:31:34;100446.59;;;21.34;100.00
62124;BME280;48110;47.532;19.078;2023-08-24T04:34:37;100457.25;;;21.52;100.00
62124;BME280;48110;47.532;19.078;2023-08-24T04:37:40;100445.84;;;21.50;100.00
62124;BME280;48110;47.532;19.078;2023-08-24T04:40:49;100451.84;;;21.52;100.00
62124;BME280;48110;47.532;19.078;2023-08-24T04:43:52;100449.25;;;21.57;100.00
62124;BME280;48110;47.532;19.078;2023-08-24T04:46:55;100458.72;;;21.72;100.00
62124;BME280;48110;47.532;19.078;2023-08-24T04:49:57;100453.66;;;21.75;100.00
62124;BME280;48110;47.532;19.078;2023-08-24T04:53:00;100458.63;;;21.66;100.00
62124;BME280;48110;47.532;19.078;2023-08-24T04:56:03;100460.37;;;21.73;100.00
62124;BME280;48110;47.532;19.078;2023-08-24T04:59:06;100463.50;;;21.81;100.00
62124;BME280;48110;47.532;19.078;2023-08-24T05:02:10;100476.06;;;21.87;100.00
62124;BME280;48110;47.532;19.078;2023-08-24T05:05:13;100471.22;;;21.89;100.00
62124;BME280;48110;47.532;19.078;2023-08-24T05:08:19;100481.47;;;21.87;100.00
62124;BME280;48110;47.532;19.078;2023-08-24T05:11:23;100481.22;;;21.89;100.00
62124;BME280;48110;47.532;19.078;2023-08-24T05:14:28;100479.69;;;21.93;100.00
62124;BME280;48110;47.532;19.078;2023-08-24T05:17:31;100484.16;;;21.99;100.00
62124;BME280;48110;47.532;19.078;2023-08-24T05:20:37;100479.78;;;22.09;100.00
62124;BME280;48110;47.532;19.078;2023-08-24T05:23:40;100477.41;;;22.13;100.00
62124;BME280;48110;47.532;19.078;2023-08-24T05:26:42;100484.59;;;22.07;100.00
62124;BME280;48110;47.532;19.078;2023-08-24T05:29:45;100484.44;;;22.14;100.00
62124;BME280;48110;47.532;19.078;2023-08-24T05:32:48;100478.63;;;22.34;100.00
62124;BME280;48110;47.532;19.078;2023-08-24T05:35:51;100485.50;;;22.41;100.00
62124;BME280;48110;47.532;19.078;2023-08-24T05:38:54;100484.16;;;22.56;100.00
62124;BME280;48110;47.532;19.078;2023-08-24T05:42:11;100487.22;;;22.76;100.00
62124;BME280;48110;47.532;19.078;2023-08-24T05:45:13;100494.13;;;22.83;100.00
62124;BME280;48110;47.532;19.078;2023-08-24T05:48:16;100492.06;;;22.90;100.00
62124;BME280;48110;47.532;19.078;2023-08-24T05:51:19;100493.12;;;23.06;100.00
62124;BME280;48110;47.532;19.078;2023-08-24T05:54:22;100495.19;;;23.16;100.00
62124;BME280;48110;47.532;19.078;2023-08-24T05:57:24;100485.84;;;23.23;100.00
62124;BME280;48110;47.532;19.078;2023-08-24T06:00:27;100488.28;;;23.25;100.00
62124;BME280;48110;47.532;19.078;2023-08-24T06:03:31;100489.69;;;23.27;100.00
62124;BME280;48110;47.532;19.078;2023-08-24T06:06:35;100495.56;;;23.41;100.00
62124;BME280;48110;47.532;19.078;2023-08-24T06:09:37;100492.66;;;23.64;100.00
62124;BME280;48110;47.532;19.078;2023-08-24T06:12:40;100495.28;;;23.59;100.00
62124;BME280;48110;47.532;19.078;2023-08-24T06:15:43;100487.94;;;23.76;100.00
62124;BME280;48110;47.532;19.078;2023-08-24T06:18:46;100491.34;;;23.89;100.00
62124;BME280;48110;47.532;19.078;2023-08-24T06:21:49;100482.28;;;24.00;100.00
62124;BME280;48110;47.532;19.078;2023-08-24T06:24:51;100497.56;;;24.11;100.00
62124;BME280;48110;47.532;19.078;2023-08-24T06:27:57;100494.44;;;24.19;100.00
62124;BME280;48110;47.532;19.078;2023-08-24T06:31:01;100492.41;;;24.31;100.00
62124;BME280;48110;47.532;19.078;2023-08-24T06:34:03;100498.22;;;24.45;100.00
62124;BME280;48110;47.532;19.078;2023-08-24T06:37:06;100492.94;;;24.60;100.00
62124;BME280;48110;47.532;19.078;2023-08-24T06:40:10;100491.00;;;24.82;100.00
62124;BME280;48110;47.532;19.078;2023-08-24T06:43:13;100494.53;;;25.15;100.00
62124;BME280;48110;47.532;19.078;2023-08-24T06:46:16;100505.28;;;25.36;100.00
62124;BME280;48110;47.532;19.078;2023-08-24T06:49:19;100492.69;;;25.62;100.00
62124;BME280;48110;47.532;19.078;2023-08-24T06:52:22;100493.06;;;25.86;100.00
62124;BME280;48110;47.532;19.078;2023-08-24T06:55:26;100499.16;;;26.18;100.00
62124;BME280;48110;47.532;19.078;2023-08-24T06:58:29;100500.09;;;26.79;100.00
62124;BME280;48110;47.532;19.078;2023-08-24T07:01:32;100504.44;;;27.51;100.00
62124;BME280;48110;47.532;19.078;2023-08-24T07:04:35;100509.88;;;28.31;100.00
62124;BME280;48110;47.532;19.078;2023-08-24T07:07:39;100494.09;;;29.01;100.00
62124;BME280;48110;47.532;19.078;2023-08-24T07:10:43;100501.69;;;29.90;100.00
62124;BME280;48110;47.532;19.078;2023-08-24T07:13:46;100509.44;;;30.63;87.37
62124;BME280;48110;47.532;19.078;2023-08-24T07:16:51;100508.06;;;29.57;100.00
62124;BME280;48110;47.532;19.078;2023-08-24T07:19:53;100506.91;;;30.29;89.58
62124;BME280;48110;47.532;19.078;2023-08-24T07:22:56;100505.37;;;31.12;79.95
62124;BME280;48110;47.532;19.078;2023-08-24T07:25:59;100502.63;;;31.58;75.24
62124;BME280;48110;47.532;19.078;2023-08-24T07:29:02;100508.47;;;32.06;71.40
62124;BME280;48110;47.532;19.078;2023-08-24T07:32:05;100511.16;;;32.11;69.98
62124;BME280;48110;47.532;19.078;2023-08-24T07:35:08;100515.22;;;32.85;63.40
62124;BME280;48110;47.532;19.078;2023-08-24T07:38:10;100503.88;;;33.31;60.63
62124;BME280;48110;47.532;19.078;2023-08-24T07:41:13;100507.59;;;33.04;61.44
62124;BME280;48110;47.532;19.078;2023-08-24T07:44:18;100508.41;;;32.83;61.29
62124;BME280;48110;47.532;19.078;2023-08-24T07:47:21;100500.34;;;33.31;59.71
62124;BME280;48110;47.532;19.078;2023-08-24T07:50:23;100509.56;;;33.12;59.27
62124;BME280;48110;47.532;19.078;2023-08-24T07:53:26;100504.44;;;33.50;57.50
62124;BME280;48110;47.532;19.078;2023-08-24T07:56:29;100504.81;;;33.66;56.88
62124;BME280;48110;47.532;19.078;2023-08-24T07:59:32;100503.56;;;34.37;53.80
62124;BME280;48110;47.532;19.078;2023-08-24T08:02:35;100504.81;;;33.66;57.29
62124;BME280;48110;47.532;19.078;2023-08-24T08:05:40;100507.59;;;32.82;60.22
62124;BME280;48110;47.532;19.078;2023-08-24T08:08:43;100504.00;;;32.59;60.17
62124;BME280;48110;47.532;19.078;2023-08-24T08:11:47;100511.50;;;35.08;52.13
62124;BME280;48110;47.532;19.078;2023-08-24T08:14:50;100507.16;;;34.55;46.55
62124;BME280;48110;47.532;19.078;2023-08-24T08:17:53;100516.41;;;34.85;42.34
62124;BME280;48110;47.532;19.078;2023-08-24T08:20:59;100506.62;;;34.19;45.01
62124;BME280;48110;47.532;19.078;2023-08-24T08:24:02;100520.91;;;35.70;40.61
62124;BME280;48110;47.532;19.078;2023-08-24T08:27:05;100514.44;;;35.58;40.09
62124;BME280;48110;47.532;19.078;2023-08-24T08:30:08;100516.84;;;36.89;39.75
62124;BME280;48110;47.532;19.078;2023-08-24T08:33:11;100514.94;;;35.89;39.61
62124;BME280;48110;47.532;19.078;2023-08-24T08:36:14;100509.41;;;34.36;41.86
62124;BME280;48110;47.532;19.078;2023-08-24T08:39:17;100521.34;;;36.93;38.28
62124;BME280;48110;47.532;19.078;2023-08-24T08:42:20;100522.00;;;37.56;37.30
62124;BME280;48110;47.532;19.078;2023-08-24T08:45:26;100520.62;;;36.22;39.21
62124;BME280;48110;47.532;19.078;2023-08-24T08:48:31;100524.87;;;37.15;36.54
62124;BME280;48110;47.532;19.078;2023-08-24T08:51:36;100518.00;;;36.67;37.50
62124;BME280;48110;47.532;19.078;2023-08-24T08:54:39;100510.84;;;36.99;37.42
62124;BME280;48110;47.532;19.078;2023-08-24T08:57:43;100505.50;;;38.08;36.25
62124;BME280;48110;47.532;19.078;2023-08-24T09:00:49;100500.97;;;39.27;32.84
62124;BME280;48110;47.532;19.078;2023-08-24T09:03:54;100500.00;;;36.94;36.11
62124;BME280;48110;47.532;19.078;2023-08-24T09:06:57;100491.56;;;38.33;34.48
62124;BME280;48110;47.532;19.078;2023-08-24T09:10:00;100493.31;;;38.25;33.73
62124;BME280;48110;47.532;19.078;2023-08-24T09:13:03;100495.88;;;39.13;32.40
62124;BME280;48110;47.532;19.078;2023-08-24T09:16:07;100491.03;;;39.10;32.86
62124;BME280;48110;47.532;19.078;2023-08-24T09:19:13;100487.69;;;34.95;39.55
62124;BME280;48110;47.532;19.078;2023-08-24T09:22:17;100492.84;;;36.81;37.28
62124;BME280;48110;47.532;19.078;2023-08-24T09:25:45;100484.69;;;37.29;35.82
62124;BME280;48110;47.532;19.078;2023-08-24T09:28:48;100482.78;;;38.31;34.91
62124;BME280;48110;47.532;19.078;2023-08-24T09:31:52;100487.19;;;39.15;33.64
62124;BME280;48110;47.532;19.078;2023-08-24T09:34:55;100482.03;;;37.21;36.40
62124;BME280;48110;47.532;19.078;2023-08-24T09:37:58;100478.84;;;38.72;34.32
62124;BME280;48110;47.532;19.078;2023-08-24T09:41:01;100474.75;;;37.28;36.30
62124;BME280;48110;47.532;19.078;2023-08-24T09:44:07;100469.28;;;37.65;34.83
62124;BME280;48110;47.532;19.078;2023-08-24T09:47:11;100467.81;;;38.87;32.88
62124;BME280;48110;47.532;19.078;2023-08-24T09:50:14;100461.94;;;39.20;32.25
62124;BME280;48110;47.532;19.078;2023-08-24T09:53:23;100463.53;;;38.34;33.88
62124;BME280;48110;47.532;19.078;2023-08-24T09:56:28;100461.31;;;37.63;32.65
62124;BME280;48110;47.532;19.078;2023-08-24T09:59:31;100461.28;;;37.27;33.41
62124;BME280;48110;47.532;19.078;2023-08-24T10:02:36;100450.25;;;34.08;38.35
62124;BME280;48110;47.532;19.078;2023-08-24T10:05:42;100446.53;;;34.55;39.62
62124;BME280;48110;47.532;19.078;2023-08-24T10:09:01;100451.88;;;32.68;43.05
62124;BME280;48110;47.532;19.078;2023-08-24T10:12:07;100461.69;;;32.38;43.32
62124;BME280;48110;47.532;19.078;2023-08-24T10:15:11;100455.69;;;31.59;44.59
62124;BME280;48110;47.532;19.078;2023-08-24T10:18:15;100445.72;;;31.77;45.92
62124;BME280;48110;47.532;19.078;2023-08-24T10:21:23;100445.00;;;31.30;46.76
62124;BME280;48110;47.532;19.078;2023-08-24T10:24:28;100445.72;;;30.57;49.05
62124;BME280;48110;47.532;19.078;2023-08-24T10:27:32;100434.78;;;30.20;50.55
62124;BME280;48110;47.532;19.078;2023-08-24T10:30:35;100434.50;;;30.73;47.10
62124;BME280;48110;47.532;19.078;2023-08-24T10:33:38;100436.59;;;30.62;48.13
62124;BME280;48110;47.532;19.078;2023-08-24T10:36:42;100427.00;;;30.27;47.71
62124;BME280;48110;47.532;19.078;2023-08-24T10:39:46;100415.22;;;30.64;45.13
62124;BME280;48110;47.532;19.078;2023-08-24T10:42:49;100411.06;;;31.54;42.46
62124;BME280;48110;47.532;19.078;2023-08-24T10:45:59;100420.41;;;35.63;36.95
62124;BME280;48110;47.532;19.078;2023-08-24T10:49:04;100414.50;;;36.23;33.75
62124;BME280;48110;47.532;19.078;2023-08-24T10:52:20;100413.47;;;35.57;33.70
62124;BME280;48110;47.532;19.078;2023-08-24T10:55:27;100414.94;;;36.04;33.16
62124;BME280;48110;47.532;19.078;2023-08-24T10:58:33;100421.03;;;36.19;32.65
62124;BME280;48110;47.532;19.078;2023-08-24T11:01:39;100414.50;;;36.56;32.10
62124;BME280;48110;47.532;19.078;2023-08-24T11:05:05;100405.19;;;37.06;31.09
62124;BME280;48110;47.532;19.078;2023-08-24T11:08:16;100416.31;;;37.18;30.25
62124;BME280;48110;47.532;19.078;2023-08-24T11:11:20;100408.97;;;39.41;27.67
62124;BME280;48110;47.532;19.078;2023-08-24T11:14:23;100413.31;;;38.23;29.27
62124;BME280;48110;47.532;19.078;2023-08-24T11:17:32;100405.03;;;38.11;29.10
62124;BME280;48110;47.532;19.078;2023-08-24T11:20:36;100399.75;;;37.94;29.44
62124;BME280;48110;47.532;19.078;2023-08-24T11:23:39;100409.87;;;38.70;27.91
62124;BME280;48110;47.532;19.078;2023-08-24T11:26:48;100394.81;;;36.25;30.62
62124;BME280;48110;47.532;19.078;2023-08-24T11:30:08;100400.63;;;39.25;27.74
62124;BME280;48110;47.532;19.078;2023-08-24T11:33:12;100395.47;;;38.80;28.39
62124;BME280;48110;47.532;19.078;2023-08-24T11:36:16;100396.44;;;39.66;27.33
62124;BME280;48110;47.532;19.078;2023-08-24T11:39:21;100403.53;;;39.79;27.81
62124;BME280;48110;47.532;19.078;2023-08-24T11:42:25;100398.09;;;38.89;28.22
62124;BME280;48110;47.532;19.078;2023-08-24T11:45:32;100389.47;;;38.35;29.10
62124;BME280;48110;47.532;19.078;2023-08-24T11:48:35;100380.34;;;39.56;27.33
62124;BME280;48110;47.532;19.078;2023-08-24T11:51:40;100382.00;;;37.83;29.89
62124;BME280;48110;47.532;19.078;2023-08-24T11:54:45;100384.03;;;39.60;27.09
62124;BME280;48110;47.532;19.078;2023-08-24T11:57:48;100377.94;;;38.76;28.41
62124;BME280;48110;47.532;19.078;2023-08-24T12:00:53;100382.56;;;41.83;24.82
62124;BME280;48110;47.532;19.078;2023-08-24T12:03:56;100382.69;;;40.08;27.02
62124;BME280;48110;47.532;19.078;2023-08-24T12:07:09;100380.63;;;40.44;26.97
62124;BME280;48110;47.532;19.078;2023-08-24T12:10:12;100379.03;;;40.43;26.64
62124;BME280;48110;47.532;19.078;2023-08-24T12:13:15;100373.44;;;42.49;23.98
62124;BME280;48110;47.532;19.078;2023-08-24T12:16:19;100374.25;;;40.43;26.78
62124;BME280;48110;47.532;19.078;2023-08-24T12:19:22;100367.91;;;40.23;25.43
62124;BME280;48110;47.532;19.078;2023-08-24T12:22:25;100355.16;;;38.98;26.91
62124;BME280;48110;47.532;19.078;2023-08-24T12:25:28;100359.19;;;40.44;25.17
62124;BME280;48110;47.532;19.078;2023-08-24T12:28:31;100349.37;;;42.34;23.37
62124;BME280;48110;47.532;19.078;2023-08-24T12:31:35;100351.31;;;41.41;23.58
62124;BME280;48110;47.532;19.078;2023-08-24T12:34:39;100342.75;;;38.05;27.20
62124;BME280;48110;47.532;19.078;2023-08-24T12:37:42;100348.81;;;41.88;23.57
62124;BME280;48110;47.532;19.078;2023-08-24T12:40:45;100348.81;;;42.22;22.69
62124;BME280;48110;47.532;19.078;2023-08-24T12:43:48;100346.09;;;39.68;25.02
62124;BME280;48110;47.532;19.078;2023-08-24T12:46:51;100338.78;;;42.95;23.28
62124;BME280;48110;47.532;19.078;2023-08-24T12:49:55;100335.75;;;46.02;19.77
62124;BME280;48110;47.532;19.078;2023-08-24T12:52:57;100341.19;;;45.36;19.98
62124;BME280;48110;47.532;19.078;2023-08-24T12:56:02;100331.09;;;44.22;20.52
62124;BME280;48110;47.532;19.078;2023-08-24T12:59:05;100342.03;;;45.12;20.50
62124;BME280;48110;47.532;19.078;2023-08-24T13:02:08;100326.44;;;46.82;19.06
62124;BME280;48110;47.532;19.078;2023-08-24T13:05:25;100328.81;;;45.20;19.83
62124;BME280;48110;47.532;19.078;2023-08-24T13:08:30;100317.63;;;46.21;19.02
62124;BME280;48110;47.532;19.078;2023-08-24T13:11:33;100312.97;;;43.77;21.47
62124;BME280;48110;47.532;19.078;2023-08-24T13:14:36;100312.22;;;46.99;18.83
62124;BME280;48110;47.532;19.078;2023-08-24T13:17:39;100300.34;;;44.18;20.64
62124;BME280;48110;47.532;19.078;2023-08-24T13:20:45;100303.19;;;44.47;21.73
62124;BME280;48110;47.532;19.078;2023-08-24T13:23:48;100295.50;;;46.34;19.80
62124;BME280;48110;47.532;19.078;2023-08-24T13:26:51;100296.31;;;48.71;17.18
62124;BME280;48110;47.532;19.078;2023-08-24T13:30:00;100297.47;;;47.93;17.96
62124;BME280;48110;47.532;19.078;2023-08-24T13:33:02;100293.22;;;44.46;20.23
62124;BME280;48110;47.532;19.078;2023-08-24T13:36:05;100288.00;;;44.83;20.13
62124;BME280;48110;47.532;19.078;2023-08-24T13:39:08;100287.84;;;43.84;20.74
62124;BME280;48110;47.532;19.078;2023-08-24T13:42:11;100290.41;;;45.20;19.66
62124;BME280;48110;47.532;19.078;2023-08-24T13:45:15;100272.78;;;43.20;20.54
62124;BME280;48110;47.532;19.078;2023-08-24T13:48:19;100261.84;;;45.57;19.12
62124;BME280;48110;47.532;19.078;2023-08-24T13:51:25;100274.50;;;47.00;18.36
62124;BME280;48110;47.532;19.078;2023-08-24T13:54:40;100278.25;;;43.78;20.99
62124;BME280;48110;47.532;19.078;2023-08-24T13:58:03;100264.94;;;41.67;22.04
62124;BME280;48110;47.532;19.078;2023-08-24T14:01:07;100261.00;;;42.89;20.91
62124;BME280;48110;47.532;19.078;2023-08-24T14:04:10;100265.66;;;44.73;19.30
62124;BME280;48110;47.532;19.078;2023-08-24T14:07:14;100261.44;;;46.80;17.87
62124;BME280;48110;47.532;19.078;2023-08-24T14:10:18;100251.00;;;41.97;22.08
62124;BME280;48110;47.532;19.078;2023-08-24T14:13:22;100258.34;;;38.93;25.42
62124;BME280;48110;47.532;19.078;2023-08-24T14:16:27;100253.19;;;36.97;27.48
62124;BME280;48110;47.532;19.078;2023-08-24T14:19:30;100247.50;;;36.00;28.15
62124;BME280;48110;47.532;19.078;2023-08-24T14:22:33;100239.00;;;35.51;29.11
62124;BME280;48110;47.532;19.078;2023-08-24T14:25:35;100241.06;;;35.13;30.03
62124;BME280;48110;47.532;19.078;2023-08-24T14:31:56;100232.53;;;37.31;27.93
62124;BME280;48110;47.532;19.078;2023-08-24T14:35:00;100233.78;;;36.36;28.45
62124;BME280;48110;47.532;19.078;2023-08-24T14:38:02;100230.13;;;35.87;30.53
62124;BME280;48110;47.532;19.078;2023-08-24T14:41:12;100232.03;;;34.28;31.64
62124;BME280;48110;47.532;19.078;2023-08-24T14:44:15;100228.47;;;32.81;33.62
62124;BME280;48110;47.532;19.078;2023-08-24T14:47:18;100222.00;;;32.86;34.34
62124;BME280;48110;47.532;19.078;2023-08-24T14:50:23;100228.62;;;32.85;34.15
62124;BME280;48110;47.532;19.078;2023-08-24T14:53:26;100218.75;;;32.84;34.92
62124;BME280;48110;47.532;19.078;2023-08-24T14:56:30;100222.81;;;32.95;34.54
62124;BME280;48110;47.532;19.078;2023-08-24T14:59:33;100212.28;;;32.49;34.96
62124;BME280;48110;47.532;19.078;2023-08-24T15:02:36;100216.94;;;32.40;34.80
62124;BME280;48110;47.532;19.078;2023-08-24T15:05:45;100212.91;;;32.37;34.96
62124;BME280;48110;47.532;19.078;2023-08-24T15:08:48;100216.00;;;32.44;35.40
62124;BME280;48110;47.532;19.078;2023-08-24T15:11:50;100213.44;;;32.48;35.33
62124;BME280;48110;47.532;19.078;2023-08-24T15:14:58;100214.84;;;32.37;35.56
62124;BME280;48110;47.532;19.078;2023-08-24T15:18:01;100224.31;;;31.77;36.03
62124;BME280;48110;47.532;19.078;2023-08-24T15:21:04;100223.06;;;31.83;35.55
62124;BME280;48110;47.532;19.078;2023-08-24T15:24:07;100225.53;;;31.49;36.25
62124;BME280;48110;47.532;19.078;2023-08-24T15:27:10;100217.25;;;31.40;36.46
62124;BME280;48110;47.532;19.078;2023-08-24T15:30:13;100216.59;;;31.43;35.83
62124;BME280;48110;47.532;19.078;2023-08-24T15:33:19;100215.72;;;31.34;35.76
62124;BME280;48110;47.532;19.078;2023-08-24T15:36:23;100215.53;;;31.31;36.17
62124;BME280;48110;47.532;19.078;2023-08-24T15:39:25;100215.59;;;31.17;36.79
62124;BME280;48110;47.532;19.078;2023-08-24T15:42:29;100214.22;;;31.28;36.94
62124;BME280;48110;47.532;19.078;2023-08-24T15:45:32;100216.06;;;31.19;37.42
62124;BME280;48110;47.532;19.078;2023-08-24T15:48:35;100216.91;;;31.06;37.77